sensor_id;sensor_type;location;lat;lon;timestamp;P1;durP1;ratioP1;P2;durP2;ratioP2
23129;SDS011;11734;51.046;13.778;2022-09-27T00:01:06;2.63;;;2.20;;
23129;SDS011;11734;51.046;13.778;2022-09-27T00:03:36;3.40;;;2.70;;
23129;SDS011;11734;51.046;13.778;2022-09-27T00:06:08;2.70;;;2.50;;
23129;SDS011;11734;51.046;13.778;2022-09-27T00:08:51;2.47;;;2.13;;
23129;SDS011;11734;51.046;13.778;2022-09-27T00:11:24;2.83;;;2.53;;
23129;SDS011;11734;51.046;13.778;2022-09-27T00:14:05;4.03;;;2.70;;
23129;SDS011;11734;51.046;13.778;2022-09-27T00:16:33;2.43;;;2.23;;
23129;SDS011;11734;51.046;13.778;2022-09-27T00:19:14;2.40;;;2.20;;
23129;SDS011;11734;51.046;13.778;2022-09-27T00:21:48;2.57;;;2.30;;
23129;SDS011;11734;51.046;13.778;2022-09-27T00:24:17;3.83;;;2.13;;
23129;SDS011;11734;51.046;13.778;2022-09-27T00:26:47;2.60;;;2.40;;
23129;SDS011;11734;51.046;13.778;2022-09-27T00:29:16;2.40;;;2.10;;
23129;SDS011;11734;51.046;13.778;2022-09-27T00:31:45;2.60;;;2.40;;
23129;SDS011;11734;51.046;13.778;2022-09-27T00:34:20;3.07;;;2.47;;
23129;SDS011;11734;51.046;13.778;2022-09-27T00:36:50;3.00;;;2.70;;
23129;SDS011;11734;51.046;13.778;2022-09-27T00:39:18;2.50;;;2.20;;
23129;SDS011;11734;51.046;13.778;2022-09-27T00:41:45;2.47;;;2.27;;
23129;SDS011;11734;51.046;13.778;2022-09-27T00:46:58;2.10;;;1.90;;
23129;SDS011;11734;51.046;13.778;2022-09-27T00:52:15;2.80;;;2.57;;
23129;SDS011;11734;51.046;13.778;2022-09-27T00:55:19;2.70;;;2.23;;
23129;SDS011;11734;51.046;13.778;2022-09-27T00:57:56;2.40;;;2.20;;
23129;SDS011;11734;51.046;13.778;2022-09-27T01:00:24;2.53;;;2.07;;
23129;SDS011;11734;51.046;13.778;2022-09-27T01:02:52;2.40;;;2.20;;
23129;SDS011;11734;51.046;13.778;2022-09-27T01:05:22;2.10;;;2.00;;
23129;SDS011;11734;51.046;13.778;2022-09-27T01:07:53;2.47;;;2.27;;
23129;SDS011;11734;51.046;13.778;2022-09-27T01:10:27;2.50;;;2.30;;
23129;SDS011;11734;51.046;13.778;2022-09-27T01:13:06;3.00;;;2.20;;
23129;SDS011;11734;51.046;13.778;2022-09-27T01:16:00;2.73;;;2.40;;
23129;SDS011;11734;51.046;13.778;2022-09-27T01:22:03;3.00;;;2.70;;
23129;SDS011;11734;51.046;13.778;2022-09-27T01:30:16;3.60;;;2.77;;
23129;SDS011;11734;51.046;13.778;2022-09-27T01:36:47;2.50;;;2.30;;
23129;SDS011;11734;51.046;13.778;2022-09-27T01:39:26;2.53;;;2.33;;
23129;SDS011;11734;51.046;13.778;2022-09-27T01:43:11;2.40;;;2.20;;
23129;SDS011;11734;51.046;13.778;2022-09-27T01:46:22;2.37;;;2.13;;
23129;SDS011;11734;51.046;13.778;2022-09-27T01:52:35;2.30;;;2.20;;
23129;SDS011;11734;51.046;13.778;2022-09-27T01:55:11;2.70;;;2.20;;
23129;SDS011;11734;51.046;13.778;2022-09-27T01:58:17;3.10;;;2.33;;
23129;SDS011;11734;51.046;13.778;2022-09-27T02:00:59;2.57;;;2.37;;
23129;SDS011;11734;51.046;13.778;2022-09-27T02:03:39;2.30;;;1.90;;
23129;SDS011;11734;51.046;13.778;2022-09-27T02:06:35;3.20;;;2.30;;
23129;SDS011;11734;51.046;13.778;2022-09-27T02:12:26;2.47;;;1.80;;
23129;SDS011;11734;51.046;13.778;2022-09-27T02:15:11;2.10;;;1.90;;
23129;SDS011;11734;51.046;13.778;2022-09-27T02:17:57;2.50;;;1.90;;
23129;SDS011;11734;51.046;13.778;2022-09-27T02:20:36;2.00;;;1.80;;
23129;SDS011;11734;51.046;13.778;2022-09-27T02:26:20;2.40;;;2.20;;
23129;SDS011;11734;51.046;13.778;2022-09-27T02:29:04;2.30;;;2.10;;
23129;SDS011;11734;51.046;13.778;2022-09-27T02:31:50;2.80;;;2.53;;
23129;SDS011;11734;51.046;13.778;2022-09-27T02:34:27;2.73;;;2.50;;
23129;SDS011;11734;51.046;13.778;2022-09-27T02:36:59;3.27;;;2.73;;
23129;SDS011;11734;51.046;13.778;2022-09-27T02:39:27;3.20;;;2.90;;
23129;SDS011;11734;51.046;13.778;2022-09-27T02:42:02;3.43;;;2.70;;
23129;SDS011;11734;51.046;13.778;2022-09-27T02:44:31;3.20;;;2.90;;
23129;SDS011;11734;51.046;13.778;2022-09-27T02:53:36;3.43;;;2.67;;
23129;SDS011;11734;51.046;13.778;2022-09-27T02:56:25;2.80;;;2.07;;
23129;SDS011;11734;51.046;13.778;2022-09-27T02:59:31;2.80;;;2.60;;
23129;SDS011;11734;51.046;13.778;2022-09-27T03:02:25;2.70;;;2.50;;
23129;SDS011;11734;51.046;13.778;2022-09-27T03:05:42;2.70;;;2.50;;
23129;SDS011;11734;51.046;13.778;2022-09-27T03:08:17;3.97;;;3.20;;
23129;SDS011;11734;51.046;13.778;2022-09-27T03:10:45;3.40;;;2.77;;
23129;SDS011;11734;51.046;13.778;2022-09-27T03:13:12;2.90;;;2.60;;
23129;SDS011;11734;51.046;13.778;2022-09-27T03:15:40;3.37;;;3.07;;
23129;SDS011;11734;51.046;13.778;2022-09-27T03:18:27;3.73;;;3.30;;
23129;SDS011;11734;51.046;13.778;2022-09-27T03:21:21;4.53;;;3.30;;
23129;SDS011;11734;51.046;13.778;2022-09-27T03:23:48;3.63;;;3.20;;
23129;SDS011;11734;51.046;13.778;2022-09-27T03:26:16;4.53;;;3.40;;
23129;SDS011;11734;51.046;13.778;2022-09-27T03:28:43;4.03;;;3.17;;
23129;SDS011;11734;51.046;13.778;2022-09-27T03:31:11;3.87;;;3.37;;
23129;SDS011;11734;51.046;13.778;2022-09-27T03:33:50;3.80;;;3.20;;
23129;SDS011;11734;51.046;13.778;2022-09-27T03:36:17;5.00;;;3.93;;
23129;SDS011;11734;51.046;13.778;2022-09-27T03:38:44;4.17;;;3.40;;
23129;SDS011;11734;51.046;13.778;2022-09-27T03:41:15;4.00;;;3.60;;
23129;SDS011;11734;51.046;13.778;2022-09-27T03:43:42;3.90;;;3.50;;
23129;SDS011;11734;51.046;13.778;2022-09-27T03:46:09;3.60;;;3.30;;
23129;SDS011;11734;51.046;13.778;2022-09-27T03:48:37;4.20;;;3.70;;
23129;SDS011;11734;51.046;13.778;2022-09-27T03:51:04;4.10;;;3.70;;
23129;SDS011;11734;51.046;13.778;2022-09-27T03:53:32;3.70;;;3.37;;
23129;SDS011;11734;51.046;13.778;2022-09-27T03:55:59;3.97;;;3.50;;
23129;SDS011;11734;51.046;13.778;2022-09-27T03:58:27;3.93;;;3.40;;
23129;SDS011;11734;51.046;13.778;2022-09-27T04:00:54;3.37;;;3.03;;
23129;SDS011;11734;51.046;13.778;2022-09-27T04:03:22;4.73;;;3.80;;
23129;SDS011;11734;51.046;13.778;2022-09-27T04:06:08;4.43;;;4.03;;
23129;SDS011;11734;51.046;13.778;2022-09-27T04:08:39;4.17;;;3.77;;
23129;SDS011;11734;51.046;13.778;2022-09-27T04:11:08;4.33;;;3.93;;
23129;SDS011;11734;51.046;13.778;2022-09-27T04:13:38;4.57;;;4.17;;
23129;SDS011;11734;51.046;13.778;2022-09-27T04:16:06;4.77;;;4.23;;
23129;SDS011;11734;51.046;13.778;2022-09-27T04:18:33;4.87;;;4.23;;
23129;SDS011;11734;51.046;13.778;2022-09-27T04:21:12;5.33;;;4.77;;
23129;SDS011;11734;51.046;13.778;2022-09-27T04:23:46;5.23;;;4.73;;
23129;SDS011;11734;51.046;13.778;2022-09-27T04:26:15;5.47;;;4.83;;
23129;SDS011;11734;51.046;13.778;2022-09-27T04:29:12;4.77;;;4.30;;
23129;SDS011;11734;51.046;13.778;2022-09-27T04:31:46;5.30;;;4.80;;
23129;SDS011;11734;51.046;13.778;2022-09-27T04:34:28;5.23;;;4.77;;
23129;SDS011;11734;51.046;13.778;2022-09-27T04:37:20;5.20;;;4.73;;
23129;SDS011;11734;51.046;13.778;2022-09-27T04:39:49;5.53;;;4.73;;
23129;SDS011;11734;51.046;13.778;2022-09-27T04:42:17;5.90;;;5.30;;
23129;SDS011;11734;51.046;13.778;2022-09-27T04:44:45;5.57;;;5.07;;
23129;SDS011;11734;51.046;13.778;2022-09-27T04:47:13;5.60;;;5.10;;
23129;SDS011;11734;51.046;13.778;2022-09-27T04:49:41;4.93;;;4.47;;
23129;SDS011;11734;51.046;13.778;2022-09-27T04:52:08;5.57;;;4.87;;
23129;SDS011;11734;51.046;13.778;2022-09-27T04:54:35;5.70;;;5.13;;
23129;SDS011;11734;51.046;13.778;2022-09-27T04:57:10;5.40;;;4.90;;
23129;SDS011;11734;51.046;13.778;2022-09-27T04:59:38;5.63;;;5.07;;
23129;SDS011;11734;51.046;13.778;2022-09-27T05:02:07;5.23;;;4.73;;
23129;SDS011;11734;51.046;13.778;2022-09-27T05:05:07;5.63;;;4.87;;
23129;SDS011;11734;51.046;13.778;2022-09-27T05:07:38;5.73;;;5.17;;
23129;SDS011;11734;51.046;13.778;2022-09-27T05:10:11;5.60;;;5.10;;
23129;SDS011;11734;51.046;13.778;2022-09-27T05:12:39;6.33;;;5.37;;
23129;SDS011;11734;51.046;13.778;2022-09-27T05:15:06;5.63;;;5.10;;
23129;SDS011;11734;51.046;13.778;2022-09-27T05:17:37;5.80;;;5.30;;
23129;SDS011;11734;51.046;13.778;2022-09-27T05:20:23;6.43;;;5.83;;
23129;SDS011;11734;51.046;13.778;2022-09-27T05:22:59;5.47;;;4.93;;
23129;SDS011;11734;51.046;13.778;2022-09-27T05:25:30;6.27;;;5.10;;
23129;SDS011;11734;51.046;13.778;2022-09-27T05:27:58;6.33;;;5.70;;
23129;SDS011;11734;51.046;13.778;2022-09-27T05:30:25;5.93;;;5.33;;
23129;SDS011;11734;51.046;13.778;2022-09-27T05:33:03;6.00;;;5.40;;
23129;SDS011;11734;51.046;13.778;2022-09-27T05:35:52;6.20;;;5.60;;
23129;SDS011;11734;51.046;13.778;2022-09-27T05:38:27;5.90;;;5.40;;
23129;SDS011;11734;51.046;13.778;2022-09-27T05:40:58;5.87;;;5.10;;
23129;SDS011;11734;51.046;13.778;2022-09-27T05:43:25;7.77;;;5.60;;
23129;SDS011;11734;51.046;13.778;2022-09-27T05:45:55;6.53;;;5.40;;
23129;SDS011;11734;51.046;13.778;2022-09-27T05:48:24;5.90;;;5.40;;
23129;SDS011;11734;51.046;13.778;2022-09-27T05:51:01;5.90;;;5.30;;
23129;SDS011;11734;51.046;13.778;2022-09-27T05:53:31;7.07;;;5.80;;
23129;SDS011;11734;51.046;13.778;2022-09-27T05:56:02;6.40;;;5.77;;
23129;SDS011;11734;51.046;13.778;2022-09-27T05:58:52;6.10;;;5.50;;
23129;SDS011;11734;51.046;13.778;2022-09-27T06:01:21;7.27;;;5.37;;
23129;SDS011;11734;51.046;13.778;2022-09-27T06:04:07;6.50;;;5.70;;
23129;SDS011;11734;51.046;13.778;2022-09-27T06:07:07;6.43;;;5.90;;
23129;SDS011;11734;51.046;13.778;2022-09-27T06:09:34;7.40;;;6.70;;
23129;SDS011;11734;51.046;13.778;2022-09-27T06:12:01;7.50;;;6.70;;
23129;SDS011;11734;51.046;13.778;2022-09-27T06:14:29;7.73;;;7.03;;
23129;SDS011;11734;51.046;13.778;2022-09-27T06:16:59;6.80;;;6.20;;
23129;SDS011;11734;51.046;13.778;2022-09-27T06:19:33;7.93;;;7.13;;
23129;SDS011;11734;51.046;13.778;2022-09-27T06:22:01;6.90;;;6.30;;
23129;SDS011;11734;51.046;13.778;2022-09-27T06:24:39;7.07;;;6.37;;
23129;SDS011;11734;51.046;13.778;2022-09-27T06:27:14;7.03;;;6.33;;
23129;SDS011;11734;51.046;13.778;2022-09-27T06:30:05;6.97;;;6.37;;
23129;SDS011;11734;51.046;13.778;2022-09-27T06:32:54;7.17;;;6.47;;
23129;SDS011;11734;51.046;13.778;2022-09-27T06:35:29;6.90;;;6.30;;
23129;SDS011;11734;51.046;13.778;2022-09-27T06:37:57;7.80;;;7.03;;
23129;SDS011;11734;51.046;13.778;2022-09-27T06:40:30;7.63;;;6.93;;
23129;SDS011;11734;51.046;13.778;2022-09-27T06:43:15;7.23;;;6.53;;
23129;SDS011;11734;51.046;13.778;2022-09-27T06:46:04;7.47;;;6.77;;
23129;SDS011;11734;51.046;13.778;2022-09-27T06:48:58;8.43;;;7.43;;
23129;SDS011;11734;51.046;13.778;2022-09-27T06:51:25;8.57;;;7.67;;
23129;SDS011;11734;51.046;13.778;2022-09-27T06:53:52;8.23;;;7.43;;
23129;SDS011;11734;51.046;13.778;2022-09-27T06:56:20;7.63;;;6.93;;
23129;SDS011;11734;51.046;13.778;2022-09-27T06:58:49;8.20;;;7.37;;
23129;SDS011;11734;51.046;13.778;2022-09-27T07:01:41;8.27;;;7.47;;
23129;SDS011;11734;51.046;13.778;2022-09-27T07:04:29;8.30;;;7.50;;
23129;SDS011;11734;51.046;13.778;2022-09-27T07:07:31;8.70;;;7.83;;
23129;SDS011;11734;51.046;13.778;2022-09-27T07:10:00;8.90;;;8.00;;
23129;SDS011;11734;51.046;13.778;2022-09-27T07:12:33;8.13;;;7.10;;
23129;SDS011;11734;51.046;13.778;2022-09-27T07:15:02;8.10;;;7.40;;
23129;SDS011;11734;51.046;13.778;2022-09-27T07:17:31;8.30;;;7.60;;
23129;SDS011;11734;51.046;13.778;2022-09-27T07:20:03;8.50;;;7.70;;
23129;SDS011;11734;51.046;13.778;2022-09-27T07:22:30;9.57;;;8.43;;
23129;SDS011;11734;51.046;13.778;2022-09-27T07:25:01;8.50;;;7.80;;
23129;SDS011;11734;51.046;13.778;2022-09-27T07:27:28;7.70;;;7.00;;
23129;SDS011;11734;51.046;13.778;2022-09-27T07:29:58;8.57;;;7.77;;
23129;SDS011;11734;51.046;13.778;2022-09-27T07:32:26;8.23;;;7.43;;
23129;SDS011;11734;51.046;13.778;2022-09-27T07:34:54;7.87;;;7.27;;
23129;SDS011;11734;51.046;13.778;2022-09-27T07:37:21;7.80;;;7.10;;
23129;SDS011;11734;51.046;13.778;2022-09-27T07:39:49;9.10;;;8.27;;
23129;SDS011;11734;51.046;13.778;2022-09-27T07:42:16;7.73;;;7.03;;
23129;SDS011;11734;51.046;13.778;2022-09-27T07:44:47;8.73;;;8.00;;
23129;SDS011;11734;51.046;13.778;2022-09-27T07:47:32;9.43;;;8.53;;
23129;SDS011;11734;51.046;13.778;2022-09-27T07:50:09;7.63;;;7.03;;
23129;SDS011;11734;51.046;13.778;2022-09-27T07:52:57;8.70;;;7.90;;
23129;SDS011;11734;51.046;13.778;2022-09-27T07:55:54;8.37;;;7.53;;
23129;SDS011;11734;51.046;13.778;2022-09-27T07:58:23;8.50;;;7.73;;
23129;SDS011;11734;51.046;13.778;2022-09-27T08:00:54;8.20;;;7.50;;
23129;SDS011;11734;51.046;13.778;2022-09-27T08:03:24;7.70;;;7.00;;
23129;SDS011;11734;51.046;13.778;2022-09-27T08:05:51;8.80;;;7.97;;
23129;SDS011;11734;51.046;13.778;2022-09-27T08:08:18;7.80;;;7.10;;
23129;SDS011;11734;51.046;13.778;2022-09-27T08:10:48;7.53;;;6.83;;
23129;SDS011;11734;51.046;13.778;2022-09-27T08:13:16;7.63;;;6.83;;
23129;SDS011;11734;51.046;13.778;2022-09-27T08:15:46;7.20;;;6.60;;
23129;SDS011;11734;51.046;13.778;2022-09-27T08:18:14;7.30;;;6.60;;
23129;SDS011;11734;51.046;13.778;2022-09-27T08:21:08;5.30;;;4.80;;
23129;SDS011;11734;51.046;13.778;2022-09-27T08:23:56;5.87;;;5.27;;
23129;SDS011;11734;51.046;13.778;2022-09-27T08:26:34;3.17;;;2.87;;
23129;SDS011;11734;51.046;13.778;2022-09-27T08:29:11;3.43;;;3.20;;
23129;SDS011;11734;51.046;13.778;2022-09-27T08:31:49;3.50;;;3.17;;
23129;SDS011;11734;51.046;13.778;2022-09-27T08:34:17;3.13;;;2.93;;
23129;SDS011;11734;51.046;13.778;2022-09-27T08:36:45;3.90;;;3.50;;
23129;SDS011;11734;51.046;13.778;2022-09-27T08:39:13;1.63;;;1.53;;
23129;SDS011;11734;51.046;13.778;2022-09-27T08:41:57;1.83;;;1.67;;
23129;SDS011;11734;51.046;13.778;2022-09-27T08:47:49;1.80;;;1.70;;
23129;SDS011;11734;51.046;13.778;2022-09-27T08:50:30;1.90;;;1.80;;
23129;SDS011;11734;51.046;13.778;2022-09-27T08:55:53;2.50;;;1.93;;
23129;SDS011;11734;51.046;13.778;2022-09-27T08:58:29;1.70;;;1.57;;
23129;SDS011;11734;51.046;13.778;2022-09-27T09:01:11;1.57;;;1.47;;
23129;SDS011;11734;51.046;13.778;2022-09-27T09:04:23;1.30;;;1.20;;
23129;SDS011;11734;51.046;13.778;2022-09-27T09:09:43;1.20;;;1.10;;
23129;SDS011;11734;51.046;13.778;2022-09-27T09:13:48;1.30;;;1.10;;
23129;SDS011;11734;51.046;13.778;2022-09-27T09:25:27;0.90;;;0.90;;
23129;SDS011;11734;51.046;13.778;2022-09-27T09:34:27;0.90;;;0.90;;
23129;SDS011;11734;51.046;13.778;2022-09-27T09:39:49;1.30;;;1.13;;
23129;SDS011;11734;51.046;13.778;2022-09-27T09:42:28;0.80;;;0.80;;
23129;SDS011;11734;51.046;13.778;2022-09-27T09:45:20;0.83;;;0.83;;
23129;SDS011;11734;51.046;13.778;2022-09-27T09:48:11;0.60;;;0.60;;
23129;SDS011;11734;51.046;13.778;2022-09-27T09:50:56;0.87;;;0.87;;
23129;SDS011;11734;51.046;13.778;2022-09-27T09:53:44;0.90;;;0.90;;
23129;SDS011;11734;51.046;13.778;2022-09-27T09:56:30;0.80;;;0.80;;
23129;SDS011;11734;51.046;13.778;2022-09-27T09:59:15;0.93;;;0.93;;
23129;SDS011;11734;51.046;13.778;2022-09-27T10:04:56;0.83;;;0.80;;
23129;SDS011;11734;51.046;13.778;2022-09-27T10:07:28;0.87;;;0.80;;
23129;SDS011;11734;51.046;13.778;2022-09-27T10:10:01;0.70;;;0.70;;
23129;SDS011;11734;51.046;13.778;2022-09-27T10:12:55;0.70;;;0.70;;
23129;SDS011;11734;51.046;13.778;2022-09-27T10:15:28;1.10;;;1.00;;
23129;SDS011;11734;51.046;13.778;2022-09-27T10:17:57;1.43;;;1.33;;
23129;SDS011;11734;51.046;13.778;2022-09-27T10:23:18;0.83;;;0.67;;
23129;SDS011;11734;51.046;13.778;2022-09-27T10:26:23;0.80;;;0.80;;
23129;SDS011;11734;51.046;13.778;2022-09-27T10:28:51;0.80;;;0.80;;
23129;SDS011;11734;51.046;13.778;2022-09-27T10:31:27;1.33;;;0.97;;
23129;SDS011;11734;51.046;13.778;2022-09-27T10:34:58;0.80;;;0.80;;
23129;SDS011;11734;51.046;13.778;2022-09-27T10:39:50;0.87;;;0.83;;
23129;SDS011;11734;51.046;13.778;2022-09-27T10:42:33;0.97;;;0.97;;
23129;SDS011;11734;51.046;13.778;2022-09-27T10:48:17;0.67;;;0.67;;
23129;SDS011;11734;51.046;13.778;2022-09-27T10:51:03;0.60;;;0.60;;
23129;SDS011;11734;51.046;13.778;2022-09-27T10:53:47;0.53;;;0.53;;
23129;SDS011;11734;51.046;13.778;2022-09-27T10:56:29;0.60;;;0.60;;
23129;SDS011;11734;51.046;13.778;2022-09-27T10:59:00;0.60;;;0.60;;
23129;SDS011;11734;51.046;13.778;2022-09-27T11:01:38;1.23;;;0.80;;
23129;SDS011;11734;51.046;13.778;2022-09-27T11:04:31;0.70;;;0.63;;
23129;SDS011;11734;51.046;13.778;2022-09-27T11:07:20;0.60;;;0.60;;
23129;SDS011;11734;51.046;13.778;2022-09-27T11:09:57;1.50;;;0.50;;
23129;SDS011;11734;51.046;13.778;2022-09-27T11:12:33;0.70;;;0.70;;
23129;SDS011;11734;51.046;13.778;2022-09-27T11:15:03;0.77;;;0.77;;
23129;SDS011;11734;51.046;13.778;2022-09-27T11:27:18;0.73;;;0.73;;
23129;SDS011;11734;51.046;13.778;2022-09-27T11:38:55;0.67;;;0.67;;
23129;SDS011;11734;51.046;13.778;2022-09-27T12:11:20;0.73;;;0.73;;
23129;SDS011;11734;51.046;13.778;2022-09-27T12:13:57;0.60;;;0.60;;
23129;SDS011;11734;51.046;13.778;2022-09-27T12:16:51;0.67;;;0.60;;
23129;SDS011;11734;51.046;13.778;2022-09-27T12:22:05;0.80;;;0.80;;
23129;SDS011;11734;51.046;13.778;2022-09-27T12:24:44;0.97;;;0.80;;
23129;SDS011;11734;51.046;13.778;2022-09-27T12:27:42;0.70;;;0.70;;
23129;SDS011;11734;51.046;13.778;2022-09-27T12:30:20;0.87;;;0.87;;
23129;SDS011;11734;51.046;13.778;2022-09-27T12:35:42;1.03;;;1.03;;
23129;SDS011;11734;51.046;13.778;2022-09-27T12:41:19;0.77;;;0.77;;
23129;SDS011;11734;51.046;13.778;2022-09-27T12:44:05;0.70;;;0.70;;
23129;SDS011;11734;51.046;13.778;2022-09-27T12:46:52;0.87;;;0.87;;
23129;SDS011;11734;51.046;13.778;2022-09-27T12:49:59;0.77;;;0.77;;
23129;SDS011;11734;51.046;13.778;2022-09-27T12:53:07;0.90;;;0.90;;
23129;SDS011;11734;51.046;13.778;2022-09-27T12:56:06;0.97;;;0.93;;
23129;SDS011;11734;51.046;13.778;2022-09-27T13:04:28;0.90;;;0.90;;
23129;SDS011;11734;51.046;13.778;2022-09-27T13:07:41;0.60;;;0.60;;
23129;SDS011;11734;51.046;13.778;2022-09-27T13:10:43;0.83;;;0.83;;
23129;SDS011;11734;51.046;13.778;2022-09-27T13:13:53;0.77;;;0.73;;
23129;SDS011;11734;51.046;13.778;2022-09-27T13:16:27;1.10;;;1.10;;
23129;SDS011;11734;51.046;13.778;2022-09-27T13:42:02;1.77;;;0.80;;
23129;SDS011;11734;51.046;13.778;2022-09-27T13:47:43;1.20;;;1.10;;
23129;SDS011;11734;51.046;13.778;2022-09-27T13:50:24;1.20;;;1.20;;
23129;SDS011;11734;51.046;13.778;2022-09-27T13:56:04;0.60;;;0.60;;
23129;SDS011;11734;51.046;13.778;2022-09-27T13:59:58;0.90;;;0.90;;
23129;SDS011;11734;51.046;13.778;2022-09-27T14:05:58;1.00;;;1.00;;
23129;SDS011;11734;51.046;13.778;2022-09-27T14:08:56;1.00;;;1.00;;
23129;SDS011;11734;51.046;13.778;2022-09-27T14:11:31;1.20;;;1.10;;
23129;SDS011;11734;51.046;13.778;2022-09-27T14:14:04;1.30;;;1.27;;
23129;SDS011;11734;51.046;13.778;2022-09-27T14:16:48;1.13;;;1.03;;
23129;SDS011;11734;51.046;13.778;2022-09-27T14:19:18;1.00;;;1.00;;
23129;SDS011;11734;51.046;13.778;2022-09-27T14:21:55;1.30;;;1.20;;
23129;SDS011;11734;51.046;13.778;2022-09-27T14:24:50;1.50;;;0.90;;
23129;SDS011;11734;51.046;13.778;2022-09-27T14:27:25;1.00;;;1.00;;
23129;SDS011;11734;51.046;13.778;2022-09-27T14:30:25;1.00;;;1.00;;
23129;SDS011;11734;51.046;13.778;2022-09-27T14:33:24;1.07;;;0.97;;
23129;SDS011;11734;51.046;13.778;2022-09-27T14:36:05;0.90;;;0.90;;
23129;SDS011;11734;51.046;13.778;2022-09-27T14:39:02;1.03;;;1.03;;
23129;SDS011;11734;51.046;13.778;2022-09-27T14:41:43;1.33;;;0.70;;
23129;SDS011;11734;51.046;13.778;2022-09-27T14:44:14;1.00;;;1.00;;
23129;SDS011;11734;51.046;13.778;2022-09-27T14:46:44;0.90;;;0.90;;
23129;SDS011;11734;51.046;13.778;2022-09-27T14:49:22;0.83;;;0.83;;
23129;SDS011;11734;51.046;13.778;2022-09-27T14:51:51;0.77;;;0.77;;
23129;SDS011;11734;51.046;13.778;2022-09-27T14:54:22;0.87;;;0.87;;
23129;SDS011;11734;51.046;13.778;2022-09-27T14:56:52;1.43;;;0.90;;
23129;SDS011;11734;51.046;13.778;2022-09-27T14:59:23;0.70;;;0.70;;
23129;SDS011;11734;51.046;13.778;2022-09-27T15:02:01;1.70;;;0.90;;
23129;SDS011;11734;51.046;13.778;2022-09-27T15:04:42;0.80;;;0.80;;
23129;SDS011;11734;51.046;13.778;2022-09-27T15:07:14;1.03;;;1.03;;
23129;SDS011;11734;51.046;13.778;2022-09-27T15:09:42;0.93;;;0.90;;
23129;SDS011;11734;51.046;13.778;2022-09-27T15:12:12;0.90;;;0.90;;
23129;SDS011;11734;51.046;13.778;2022-09-27T15:14:48;0.90;;;0.90;;
23129;SDS011;11734;51.046;13.778;2022-09-27T15:17:20;0.80;;;0.80;;
23129;SDS011;11734;51.046;13.778;2022-09-27T15:19:58;1.00;;;1.00;;
23129;SDS011;11734;51.046;13.778;2022-09-27T15:22:50;0.90;;;0.90;;
23129;SDS011;11734;51.046;13.778;2022-09-27T15:25:19;0.80;;;0.80;;
23129;SDS011;11734;51.046;13.778;2022-09-27T15:27:58;1.23;;;1.13;;
23129;SDS011;11734;51.046;13.778;2022-09-27T15:30:36;2.00;;;1.00;;
23129;SDS011;11734;51.046;13.778;2022-09-27T15:33:23;1.30;;;1.20;;
23129;SDS011;11734;51.046;13.778;2022-09-27T15:35:55;1.17;;;1.10;;
23129;SDS011;11734;51.046;13.778;2022-09-27T15:38:41;1.37;;;1.20;;
23129;SDS011;11734;51.046;13.778;2022-09-27T15:41:14;1.10;;;1.10;;
23129;SDS011;11734;51.046;13.778;2022-09-27T15:51:43;1.27;;;1.17;;
23129;SDS011;11734;51.046;13.778;2022-09-27T15:54:22;1.27;;;1.20;;
23129;SDS011;11734;51.046;13.778;2022-09-27T15:56:52;1.73;;;1.63;;
23129;SDS011;11734;51.046;13.778;2022-09-27T15:59:25;1.73;;;1.40;;
23129;SDS011;11734;51.046;13.778;2022-09-27T16:01:59;1.57;;;1.47;;
23129;SDS011;11734;51.046;13.778;2022-09-27T16:04:41;1.43;;;1.33;;
23129;SDS011;11734;51.046;13.778;2022-09-27T16:07:09;1.57;;;1.47;;
23129;SDS011;11734;51.046;13.778;2022-09-27T16:09:38;1.23;;;1.20;;
23129;SDS011;11734;51.046;13.778;2022-09-27T16:12:05;1.77;;;1.33;;
23129;SDS011;11734;51.046;13.778;2022-09-27T16:14:34;1.40;;;1.30;;
23129;SDS011;11734;51.046;13.778;2022-09-27T16:17:01;1.20;;;1.10;;
23129;SDS011;11734;51.046;13.778;2022-09-27T16:19:28;1.20;;;1.10;;
23129;SDS011;11734;51.046;13.778;2022-09-27T16:21:55;1.30;;;1.20;;
23129;SDS011;11734;51.046;13.778;2022-09-27T16:24:22;1.37;;;1.27;;
23129;SDS011;11734;51.046;13.778;2022-09-27T16:26:50;1.33;;;1.23;;
23129;SDS011;11734;51.046;13.778;2022-09-27T16:29:17;1.30;;;1.20;;
23129;SDS011;11734;51.046;13.778;2022-09-27T16:31:44;1.20;;;1.20;;
23129;SDS011;11734;51.046;13.778;2022-09-27T16:34:12;1.60;;;1.50;;
23129;SDS011;11734;51.046;13.778;2022-09-27T16:36:39;1.80;;;1.40;;
23129;SDS011;11734;51.046;13.778;2022-09-27T16:39:08;1.07;;;1.07;;
23129;SDS011;11734;51.046;13.778;2022-09-27T16:41:38;2.50;;;1.30;;
23129;SDS011;11734;51.046;13.778;2022-09-27T16:44:07;1.00;;;1.00;;
23129;SDS011;11734;51.046;13.778;2022-09-27T16:46:42;0.90;;;0.90;;
23129;SDS011;11734;51.046;13.778;2022-09-27T16:49:13;1.20;;;1.10;;
23129;SDS011;11734;51.046;13.778;2022-09-27T16:51:59;1.10;;;1.10;;
23129;SDS011;11734;51.046;13.778;2022-09-27T16:54:27;0.97;;;0.90;;
23129;SDS011;11734;51.046;13.778;2022-09-27T16:56:56;1.67;;;1.00;;
23129;SDS011;11734;51.046;13.778;2022-09-27T16:59:24;1.53;;;1.20;;
23129;SDS011;11734;51.046;13.778;2022-09-27T17:01:53;1.30;;;1.20;;
23129;SDS011;11734;51.046;13.778;2022-09-27T17:04:24;1.30;;;1.20;;
23129;SDS011;11734;51.046;13.778;2022-09-27T17:06:53;1.27;;;1.17;;
23129;SDS011;11734;51.046;13.778;2022-09-27T17:09:21;1.37;;;1.27;;
23129;SDS011;11734;51.046;13.778;2022-09-27T17:11:50;1.70;;;1.40;;
23129;SDS011;11734;51.046;13.778;2022-09-27T17:14:17;1.33;;;1.20;;
23129;SDS011;11734;51.046;13.778;2022-09-27T17:16:46;2.03;;;1.40;;
23129;SDS011;11734;51.046;13.778;2022-09-27T17:19:14;1.37;;;1.27;;
23129;SDS011;11734;51.046;13.778;2022-09-27T17:21:44;1.50;;;1.40;;
23129;SDS011;11734;51.046;13.778;2022-09-27T17:24:11;1.93;;;1.53;;
23129;SDS011;11734;51.046;13.778;2022-09-27T17:26:39;1.37;;;1.27;;
23129;SDS011;11734;51.046;13.778;2022-09-27T17:29:08;1.83;;;1.43;;
23129;SDS011;11734;51.046;13.778;2022-09-27T17:31:37;1.50;;;1.40;;
23129;SDS011;11734;51.046;13.778;2022-09-27T17:34:07;2.33;;;1.40;;
23129;SDS011;11734;51.046;13.778;2022-09-27T17:36:38;1.60;;;1.50;;
23129;SDS011;11734;51.046;13.778;2022-09-27T17:39:10;1.40;;;1.30;;
23129;SDS011;11734;51.046;13.778;2022-09-27T17:41:39;1.40;;;1.30;;
23129;SDS011;11734;51.046;13.778;2022-09-27T17:44:08;2.13;;;1.60;;
23129;SDS011;11734;51.046;13.778;2022-09-27T17:46:37;1.93;;;1.60;;
23129;SDS011;11734;51.046;13.778;2022-09-27T17:49:05;1.70;;;1.60;;
23129;SDS011;11734;51.046;13.778;2022-09-27T17:51:53;1.70;;;1.60;;
23129;SDS011;11734;51.046;13.778;2022-09-27T17:54:21;1.70;;;1.50;;
23129;SDS011;11734;51.046;13.778;2022-09-27T17:56:51;2.00;;;1.77;;
23129;SDS011;11734;51.046;13.778;2022-09-27T17:59:19;2.07;;;1.90;;
23129;SDS011;11734;51.046;13.778;2022-09-27T18:01:46;1.43;;;1.33;;
23129;SDS011;11734;51.046;13.778;2022-09-27T18:04:15;1.53;;;1.43;;
23129;SDS011;11734;51.046;13.778;2022-09-27T18:06:45;1.53;;;1.40;;
23129;SDS011;11734;51.046;13.778;2022-09-27T18:09:14;2.00;;;1.87;;
23129;SDS011;11734;51.046;13.778;2022-09-27T18:11:42;2.13;;;1.47;;
23129;SDS011;11734;51.046;13.778;2022-09-27T18:14:10;1.40;;;1.30;;
23129;SDS011;11734;51.046;13.778;2022-09-27T18:16:40;1.50;;;1.40;;
23129;SDS011;11734;51.046;13.778;2022-09-27T18:19:13;1.57;;;1.47;;
23129;SDS011;11734;51.046;13.778;2022-09-27T18:21:42;1.80;;;1.70;;
23129;SDS011;11734;51.046;13.778;2022-09-27T18:24:09;2.40;;;1.70;;
23129;SDS011;11734;51.046;13.778;2022-09-27T18:26:40;2.00;;;1.70;;